Time;durP1;ratioP1;P1;durP2;ratioP2;P2;SDS_P1;SDS_P2;PMS_P1;PMS_P2;Temp;Humidity;BMP_temperature;BMP_pressure;BME280_temperature;BME280_humidity;BME280_pressure;Samples;Min_cycle;Max_cycle;Signal;HPM_P1;HPM_P2
2022/03/03 00:00:05;;;;;;;31.67;18.37;;;;;;;1.31;65.34;100900.44;5085246;28;20436;-69
2022/03/03 00:02:32;;;;;;;27.90;18.70;;;;;;;1.36;65.33;100908.16;5083549;28;20448;-69
2022/03/03 00:05:00;;;;;;;32.00;19.93;;;;;;;1.28;65.56;100911.09;5098353;28;20447;-68
2022/03/03 00:07:26;;;;;;;31.50;18.77;;;;;;;1.22;65.79;100912.22;5102447;28;20443;-67
2022/03/03 00:09:53;;;;;;;27.37;18.63;;;;;;;1.09;66.03;100908.38;5098808;28;20479;-68
2022/03/03 00:12:20;;;;;;;25.73;17.60;;;;;;;1.06;66.51;100903.22;5085241;28;20515;-68
2022/03/03 00:14:46;;;;;;;31.37;19.13;;;;;;;1.06;66.45;100908.50;5084285;28;20466;-68
2022/03/03 00:17:13;;;;;;;24.30;16.23;;;;;;;1.11;66.71;100909.16;5085274;28;20474;-68
2022/03/03 00:19:40;;;;;;;26.60;17.43;;;;;;;1.18;66.47;100901.84;5103107;28;20500;-68
2022/03/03 00:22:08;;;;;;;32.63;19.57;;;;;;;1.21;66.03;100896.47;5089313;28;20480;-67
2022/03/03 00:24:35;;;;;;;28.53;18.60;;;;;;;1.13;65.86;100895.00;5094356;28;20612;-68
2022/03/03 00:27:03;;;;;;;31.40;19.13;;;;;;;1.10;65.80;100889.88;5087594;28;20471;-69
2022/03/03 00:29:30;;;;;;;28.30;18.17;;;;;;;1.08;65.79;100893.50;5102907;28;20451;-70
2022/03/03 00:31:57;;;;;;;28.65;18.02;;;;;;;1.09;65.97;100892.56;5098339;28;20270;-69
2022/03/03 00:34:23;;;;;;;27.80;17.47;;;;;;;1.08;66.31;100885.59;5101776;28;20205;-70
2022/03/03 00:36:50;;;;;;;27.63;17.92;;;;;;;0.98;66.47;100885.13;5087779;28;20505;-70
2022/03/03 00:39:18;;;;;;;25.40;18.23;;;;;;;0.95;66.49;100877.34;5095680;28;20724;-70
2022/03/03 00:41:45;;;;;;;28.70;18.10;;;;;;;0.94;66.38;100870.38;5088581;28;20905;-70
2022/03/03 00:44:11;;;;;;;25.50;18.23;;;;;;;0.99;66.30;100876.31;5096698;28;20522;-69
2022/03/03 00:46:39;;;;;;;26.90;17.50;;;;;;;1.01;66.26;100870.97;5101980;28;20467;-69
2022/03/03 00:49:06;;;;;;;35.13;18.97;;;;;;;0.96;66.23;100857.16;5102717;28;20474;-69
2022/03/03 00:51:33;;;;;;;24.50;17.65;;;;;;;0.89;66.77;100859.19;5098520;28;21018;-69
2022/03/03 00:53:59;;;;;;;28.27;16.75;;;;;;;0.89;66.74;100862.66;5089427;28;20252;-69
2022/03/03 00:56:28;;;;;;;25.70;17.13;;;;;;;0.83;67.09;100860.28;5090461;28;20201;-69
2022/03/03 00:58:55;;;;;;;27.60;17.90;;;;;;;0.81;67.49;100859.47;5082783;28;20803;-69
2022/03/03 01:01:22;;;;;;;27.63;17.60;;;;;;;0.92;67.27;100862.53;5084087;28;20586;-69
2022/03/03 01:03:48;;;;;;;26.37;17.33;;;;;;;0.91;67.01;100859.97;5082571;28;20459;-70
2022/03/03 01:06:15;;;;;;;27.60;18.70;;;;;;;0.89;66.88;100856.56;5099076;28;20482;-69
2022/03/03 01:08:42;;;;;;;26.70;18.03;;;;;;;0.79;67.17;100850.81;5067468;28;20461;-68
2022/03/03 01:11:09;;;;;;;29.10;18.80;;;;;;;0.79;67.44;100842.91;5102623;28;20475;-69
2022/03/03 01:13:37;;;;;;;24.63;17.43;;;;;;;0.82;67.38;100845.41;5101393;28;20458;-68
2022/03/03 01:16:04;;;;;;;25.77;18.20;;;;;;;0.83;67.44;100846.25;5086562;28;20513;-69
2022/03/03 01:18:31;;;;;;;31.13;19.10;;;;;;;0.74;67.61;100842.25;5094327;28;20451;-69
2022/03/03 01:20:58;;;;;;;28.27;17.53;;;;;;;0.78;67.65;100835.91;5081965;28;20452;-68
2022/03/03 01:23:24;;;;;;;28.70;16.97;;;;;;;0.95;67.26;100835.22;5081997;28;20455;-68
2022/03/03 01:25:51;;;;;;;28.90;17.70;;;;;;;0.90;67.35;100834.56;5086748;28;20448;-69
2022/03/03 01:28:18;;;;;;;26.60;18.03;;;;;;;0.79;67.75;100834.16;5102626;28;20462;-69
2022/03/03 01:30:46;;;;;;;26.50;17.63;;;;;;;0.70;67.89;100836.25;5086183;28;20479;-69
2022/03/03 01:33:13;;;;;;;25.25;17.02;;;;;;;0.74;67.99;100842.25;5090645;28;20546;-69
2022/03/03 01:35:40;;;;;;;26.55;19.55;;;;;;;0.64;68.35;100841.75;5090921;28;20198;-69
2022/03/03 01:38:06;;;;;;;30.00;18.90;;;;;;;0.53;68.95;100850.09;5089521;28;20282;-69
2022/03/03 01:40:33;;;;;;;27.67;18.13;;;;;;;0.63;68.82;100845.31;5096232;28;20493;-69
2022/03/03 01:43:00;;;;;;;30.20;19.00;;;;;;;0.51;68.89;100851.06;5081256;28;21037;-69
2022/03/03 01:45:27;;;;;;;25.80;17.17;;;;;;;0.45;69.21;100852.19;5083349;28;20447;-69
2022/03/03 01:47:55;;;;;;;26.83;17.20;;;;;;;0.55;69.26;100855.28;5081302;28;20815;-68
2022/03/03 01:50:21;;;;;;;26.13;17.67;;;;;;;0.59;68.84;100853.38;5090282;28;20545;-68
2022/03/03 01:52:48;;;;;;;29.10;19.70;;;;;;;0.56;68.83;100841.22;5083701;28;20226;-68
2022/03/03 01:55:14;;;;;;;30.50;18.03;;;;;;;0.47;69.03;100845.09;5088514;28;20476;-70
2022/03/03 01:57:41;;;;;;;22.57;16.30;;;;;;;0.56;69.00;100843.84;5101805;28;21208;-69
2022/03/03 02:00:09;;;;;;;26.60;17.60;;;;;;;0.61;68.79;100838.38;5083103;28;20432;-69
2022/03/03 02:02:36;;;;;;;27.37;18.87;;;;;;;0.61;68.36;100831.38;5077364;28;20440;-69
2022/03/03 02:05:04;;;;;;;27.17;17.40;;;;;;;0.47;68.71;100837.19;5095308;28;20513;-68
2022/03/03 02:07:31;;;;;;;27.80;18.20;;;;;;;0.33;69.20;100836.88;5086060;28;20225;-68
2022/03/03 02:09:58;;;;;;;29.38;18.63;;;;;;;0.40;69.22;100835.72;5101664;28;20454;-68
2022/03/03 02:12:24;;;;;;;25.58;18.10;;;;;;;0.51;68.70;100832.66;5065690;28;20217;-68
2022/03/03 02:14:51;;;;;;;27.23;18.63;;;;;;;0.41;68.63;100831.31;5081801;28;21094;-68
2022/03/03 02:17:18;;;;;;;29.37;19.10;;;;;;;0.27;68.98;100822.19;5083667;28;20501;-68
2022/03/03 02:19:45;;;;;;;27.88;18.40;;;;;;;0.25;69.28;100824.03;5081124;28;20436;-67
2022/03/03 02:22:13;;;;;;;28.33;18.52;;;;;;;0.24;69.51;100822.31;5080494;28;20210;-67
2022/03/03 02:24:41;;;;;;;30.60;20.40;;;;;;;0.40;69.25;100826.97;5082760;28;20511;-67
2022/03/03 02:27:08;;;;;;;25.83;18.17;;;;;;;0.37;69.06;100820.06;5101502;28;20438;-68
2022/03/03 02:29:36;;;;;;;27.20;19.50;;;;;;;0.23;68.87;100815.34;5098330;28;20229;-68
2022/03/03 02:32:04;;;;;;;32.45;19.95;;;;;;;0.07;69.80;100811.59;5090145;28;20781;-68
2022/03/03 02:34:30;;;;;;;26.90;17.13;;;;;;;0.11;70.04;100806.16;5099071;28;20205;-68
2022/03/03 02:36:57;;;;;;;32.47;18.15;;;;;;;0.21;69.52;100813.69;5087431;28;20666;-68
2022/03/03 02:39:26;;;;;;;32.38;17.80;;;;;;;0.27;69.21;100809.03;5084947;28;20683;-68
2022/03/03 02:41:52;;;;;;;29.40;20.30;;;;;;;0.28;69.06;100802.00;5100653;28;20675;-68
2022/03/03 02:44:19;;;;;;;30.10;17.67;;;;;;;0.27;68.85;100801.16;5102900;28;20462;-68
2022/03/03 02:46:46;;;;;;;29.30;20.15;;;;;;;0.33;69.15;100806.19;5104600;28;20440;-68
2022/03/03 02:49:13;;;;;;;31.60;19.67;;;;;;;0.47;69.09;100805.63;5099169;28;20197;-68
2022/03/03 02:51:39;;;;;;;32.13;19.27;;;;;;;0.45;68.88;100811.84;5084590;28;20487;-68
2022/03/03 02:54:06;;;;;;;28.33;19.40;;;;;;;0.21;69.56;100813.69;5085294;28;20448;-68
2022/03/03 02:57:53;;;;;;;31.63;19.25;;;;;;;0.26;69.83;100802.09;5085690;28;20204;-68
2022/03/03 02:59:21;;;;;;;30.20;19.10;;;;;;;0.32;69.28;100800.97;5084822;28;20259;-69
2022/03/03 03:01:48;;;;;;;31.02;19.30;;;;;;;0.31;69.20;100802.75;5097787;28;20447;-68
2022/03/03 03:04:15;;;;;;;28.60;18.15;;;;;;;0.33;69.28;100800.03;5100276;28;20304;-69
2022/03/03 03:06:42;;;;;;;29.00;18.73;;;;;;;0.33;69.11;100808.81;5069255;28;20219;-68
2022/03/03 03:09:08;;;;;;;27.80;17.50;;;;;;;0.28;69.02;100805.50;5084828;28;20198;-68
2022/03/03 03:11:36;;;;;;;30.40;18.20;;;;;;;0.32;68.85;100801.81;5095659;28;20224;-67
2022/03/03 03:14:03;;;;;;;30.63;19.00;;;;;;;0.33;68.73;100797.41;5097985;28;20209;-67
2022/03/03 03:16:30;;;;;;;26.58;18.38;;;;;;;0.25;68.87;100792.47;5094910;28;20442;-68
2022/03/03 03:18:57;;;;;;;27.88;18.25;;;;;;;0.17;69.43;100789.28;5102478;28;20228;-67
2022/03/03 03:21:23;;;;;;;30.30;17.27;;;;;;;0.20;69.78;100797.06;5097073;28;20243;-68
2022/03/03 03:23:50;;;;;;;28.43;18.77;;;;;;;0.23;69.79;100793.47;5103056;28;20542;-68
2022/03/03 03:26:17;;;;;;;29.23;18.23;;;;;;;0.22;69.71;100797.00;5094307;28;20466;-68
2022/03/03 03:28:45;;;;;;;25.85;18.50;;;;;;;0.10;70.06;100793.94;5084860;28;20237;-68
2022/03/03 03:31:11;;;;;;;29.35;18.17;;;;;;;0.17;69.74;100790.16;5096644;28;20220;-68
2022/03/03 03:33:38;;;;;;;28.43;19.27;;;;;;;0.16;69.69;100795.47;5085588;28;20225;-68
2022/03/03 03:36:05;;;;;;;33.33;19.02;;;;;;;0.14;69.64;100789.41;5084718;28;20451;-69
2022/03/03 03:38:32;;;;;;;25.30;17.02;;;;;;;0.09;69.78;100792.22;5084371;28;20229;-68
2022/03/03 03:40:59;;;;;;;28.33;17.65;;;;;;;-0.04;70.39;100796.25;5084961;28;20235;-68
2022/03/03 03:43:25;;;;;;;27.05;18.42;;;;;;;-0.27;71.26;100791.88;5099774;28;20205;-68
2022/03/03 03:45:54;;;;;;;28.20;17.90;;;;;;;-0.30;71.83;100786.72;5103394;28;20227;-68
2022/03/03 03:48:20;;;;;;;27.23;17.73;;;;;;;-0.12;71.04;100786.03;5087607;28;20198;-69
2022/03/03 03:50:47;;;;;;;30.65;18.30;;;;;;;-0.13;71.01;100789.56;5093097;28;20263;-68
2022/03/03 03:53:14;;;;;;;27.77;18.25;;;;;;;-0.15;71.15;100790.56;5088288;28;20225;-68
2022/03/03 03:55:41;;;;;;;27.63;17.90;;;;;;;-0.06;70.90;100787.56;5087875;28;20193;-67
2022/03/03 03:58:07;;;;;;;28.88;16.65;;;;;;;-0.05;70.73;100790.13;5104414;28;20224;-67
2022/03/03 04:00:34;;;;;;;29.88;19.08;;;;;;;-0.13;70.81;100786.09;5102190;28;20193;-68
2022/03/03 04:03:02;;;;;;;28.75;16.95;;;;;;;-0.26;71.37;100801.47;5083537;28;21021;-67
2022/03/03 04:05:29;;;;;;;31.52;18.40;;;;;;;-0.27;71.29;100799.75;5088524;28;20248;-67
2022/03/03 04:07:56;;;;;;;37.38;18.58;;;;;;;-0.25;71.25;100803.19;5097939;28;20233;-68
2022/03/03 04:10:23;;;;;;;27.33;18.50;;;;;;;-0.25;71.37;100797.94;5084076;28;20193;-68
2022/03/03 04:12:50;;;;;;;31.70;18.60;;;;;;;-0.27;71.37;100800.59;5083670;28;20221;-69
2022/03/03 04:15:16;;;;;;;24.92;18.08;;;;;;;-0.38;71.54;100800.16;5094492;28;20239;-68
2022/03/03 04:17:43;;;;;;;32.80;19.90;;;;;;;-0.39;71.47;100796.66;5099895;28;20557;-68
2022/03/03 04:20:12;;;;;;;30.38;19.17;;;;;;;-0.37;71.61;100799.25;5097994;28;20320;-68
2022/03/03 04:22:39;;;;;;;33.35;18.15;;;;;;;-0.43;71.59;100795.06;5100162;28;20208;-68
2022/03/03 04:25:06;;;;;;;31.42;19.55;;;;;;;-0.60;72.29;100784.34;5093101;28;20209;-68
2022/03/03 04:27:33;;;;;;;30.27;18.85;;;;;;;-0.56;72.40;100788.56;5087705;28;20233;-67
2022/03/03 04:30:00;;;;;;;29.23;17.83;;;;;;;-0.45;72.15;100781.16;5083961;28;20229;-68
2022/03/03 04:32:27;;;;;;;31.40;20.30;;;;;;;-0.47;71.59;100777.72;5092767;28;20213;-70
2022/03/03 04:34:53;;;;;;;28.80;20.23;;;;;;;-0.49;71.59;100782.16;5094966;28;20206;-69
2022/03/03 04:37:21;;;;;;;30.42;19.83;;;;;;;-0.42;71.53;100781.03;5094723;28;20298;-68
2022/03/03 04:39:48;;;;;;;31.50;18.88;;;;;;;-0.61;71.96;100788.75;5087307;28;20227;-66
2022/03/03 04:42:15;;;;;;;33.30;21.23;;;;;;;-0.61;72.32;100780.00;5100396;28;20201;-68
2022/03/03 04:44:41;;;;;;;33.15;19.92;;;;;;;-0.72;72.31;100766.41;5096505;28;20202;-67
2022/03/03 04:47:08;;;;;;;28.45;19.25;;;;;;;-0.67;72.14;100767.09;5084476;28;20198;-68
2022/03/03 04:49:37;;;;;;;32.25;20.55;;;;;;;-0.64;71.89;100765.22;5098924;28;20232;-68
2022/03/03 04:52:04;;;;;;;31.25;18.10;;;;;;;-0.63;71.85;100752.94;5085095;28;20828;-68
2022/03/03 04:54:32;;;;;;;35.95;19.30;;;;;;;-0.64;71.49;100746.84;5088396;28;20200;-67
2022/03/03 04:56:59;;;;;;;23.77;18.45;;;;;;;-0.68;71.40;100744.38;5094169;28;20610;-69
2022/03/03 04:59:25;;;;;;;26.80;18.10;;;;;;;-0.65;71.82;100750.38;5083821;28;20683;-67
2022/03/03 05:01:52;;;;;;;29.83;19.92;;;;;;;-0.63;71.85;100747.69;5082363;28;20198;-67
2022/03/03 05:04:19;;;;;;;28.88;18.70;;;;;;;-0.66;71.38;100743.41;5086529;28;20209;-67
2022/03/03 05:06:46;;;;;;;31.27;17.85;;;;;;;-0.77;71.74;100741.16;5097484;28;20267;-68
2022/03/03 05:09:13;;;;;;;27.58;17.98;;;;;;;-0.68;71.71;100744.38;5082901;28;20189;-67
2022/03/03 05:11:42;;;;;;;30.23;18.90;;;;;;;-0.69;71.84;100743.53;5083949;28;20274;-69
2022/03/03 05:14:09;;;;;;;28.98;19.55;;;;;;;-0.66;71.90;100755.66;5090136;28;20232;-68
2022/03/03 05:16:35;;;;;;;29.08;19.20;;;;;;;-0.74;72.21;100753.34;5092080;28;20299;-68
2022/03/03 05:19:02;;;;;;;27.17;18.05;;;;;;;-0.77;72.23;100745.56;5081653;28;20225;-69
2022/03/03 05:21:31;;;;;;;28.65;18.20;;;;;;;-0.73;71.89;100734.03;5081261;28;20236;-69
2022/03/03 05:23:58;;;;;;;26.65;18.15;;;;;;;-0.65;71.87;100737.22;5077437;28;20264;-68
2022/03/03 05:26:25;;;;;;;30.45;19.30;;;;;;;-0.67;71.75;100748.72;5097433;28;20232;-73
2022/03/03 05:28:53;;;;;;;29.60;19.05;;;;;;;-0.88;72.25;100743.34;5096762;28;20193;-74
2022/03/03 05:31:20;;;;;;;35.13;19.88;;;;;;;-0.87;72.70;100738.94;5102481;28;20300;-71
2022/03/03 05:33:47;;;;;;;32.63;18.33;;;;;;;-0.89;72.24;100732.88;5100351;28;20237;-75
2022/03/03 05:36:13;;;;;;;32.00;19.92;;;;;;;-1.00;72.64;100742.00;5088113;28;20213;-73
2022/03/03 05:38:40;;;;;;;38.05;21.27;;;;;;;-1.25;73.43;100756.88;5077954;28;20209;-71
2022/03/03 05:41:07;;;;;;;26.60;17.30;;;;;;;-1.53;74.59;100758.69;5100576;28;20209;-73
2022/03/03 05:43:35;;;;;;;26.63;18.35;;;;;;;-1.68;75.51;100759.19;5092870;28;20197;-74
2022/03/03 05:46:04;;;;;;;24.80;16.90;;;;;;;-1.66;76.17;100751.28;5080750;28;20194;-73
2022/03/03 05:48:31;;;;;;;29.95;16.67;;;;;;;-1.51;76.01;100756.03;5078324;28;20236;-71
2022/03/03 05:50:58;;;;;;;28.98;19.75;;;;;;;-1.38;75.49;100764.34;5080382;28;20232;-73
2022/03/03 05:53:25;;;;;;;29.95;19.00;;;;;;;-1.27;74.83;100759.56;5079821;28;20833;-73
2022/03/03 05:55:53;;;;;;;26.25;17.50;;;;;;;-1.22;74.71;100760.25;5080487;28;20741;-74
2022/03/03 05:58:21;;;;;;;27.50;18.30;;;;;;;-1.20;74.63;100768.97;5080828;28;20205;-72
2022/03/03 06:00:50;;;;;;;29.60;18.40;;;;;;;-1.15;74.20;100767.03;5080418;28;20676;-74
2022/03/03 06:03:20;;;;;;;25.58;17.60;;;;;;;-1.12;74.21;100767.84;5082394;28;20792;-74
2022/03/03 06:05:50;;;;;;;29.48;17.83;;;;;;;-1.09;74.21;100768.59;5081802;28;20206;-74
2022/03/03 06:08:19;;;;;;;31.15;20.48;;;;;;;-1.08;74.04;100767.66;5080621;28;20206;-73
2022/03/03 06:10:47;;;;;;;33.88;21.83;;;;;;;-1.14;74.20;100768.72;5091148;28;20241;-72
2022/03/03 06:13:23;;;;;;;31.75;20.85;;;;;;;-1.10;74.40;100769.47;5091509;28;20248;-75
2022/03/03 06:15:50;;;;;;;29.05;19.92;;;;;;;-1.02;74.26;100769.22;5083473;28;20275;-74
2022/03/03 06:18:20;;;;;;;30.27;19.30;;;;;;;-0.93;74.00;100763.66;5079756;28;20256;-72
2022/03/03 06:20:47;;;;;;;35.10;19.35;;;;;;;-0.82;73.98;100773.75;5095796;28;20310;-72
2022/03/03 06:23:13;;;;;;;32.05;21.08;;;;;;;-0.72;73.55;100764.63;5081566;28;20216;-70
2022/03/03 06:25:41;;;;;;;34.08;20.35;;;;;;;-0.70;73.25;100772.47;5076045;28;20269;-73
2022/03/03 06:28:08;;;;;;;28.15;19.60;;;;;;;-0.51;72.77;100770.84;5074346;28;20262;-73
2022/03/03 06:30:35;;;;;;;31.60;19.77;;;;;;;-0.42;72.26;100775.78;5077368;28;20659;-73
2022/03/03 06:33:03;;;;;;;32.15;19.95;;;;;;;-0.36;71.76;100773.81;5080000;28;20225;-70
2022/03/03 06:35:36;;;;;;;29.77;20.52;;;;;;;-0.35;71.54;100780.78;5074109;28;20213;-73
2022/03/03 06:38:07;;;;;;;37.03;20.52;;;;;;;-0.15;72.47;100783.53;5080697;28;20257;-72
2022/03/03 06:40:36;;;;;;;29.17;19.05;;;;;;;1.22;69.57;100793.69;5080598;28;20182;-72
2022/03/03 06:43:03;;;;;;;33.67;21.13;;;;;;;2.42;65.09;100789.91;5080105;28;20190;-71
2022/03/03 06:45:30;;;;;;;30.63;20.30;;;;;;;3.83;61.47;100791.44;5080472;28;20501;-73
2022/03/03 06:47:58;;;;;;;29.67;19.10;;;;;;;4.85;55.74;100792.69;5080151;28;20420;-72
2022/03/03 06:50:25;;;;;;;27.43;17.00;;;;;;;5.68;52.22;100796.56;5079891;28;20440;-72
2022/03/03 06:52:53;;;;;;;24.53;16.70;;;;;;;6.29;50.45;100782.09;5080630;28;20836;-71
2022/03/03 06:55:22;;;;;;;23.03;16.93;;;;;;;6.47;49.56;100789.78;5080917;28;20451;-71
2022/03/03 06:57:50;;;;;;;22.97;16.30;;;;;;;6.83;48.66;100793.63;5078790;28;20463;-72
2022/03/03 07:00:19;;;;;;;18.97;15.40;;;;;;;7.34;47.76;100783.91;5074324;28;20522;-71
2022/03/03 07:02:47;;;;;;;22.13;15.50;;;;;;;6.47;47.84;100787.13;5080506;28;20475;-70
2022/03/03 07:05:14;;;;;;;28.30;16.10;;;;;;;5.94;49.65;100787.00;5079463;28;20487;-71
2022/03/03 07:07:42;;;;;;;22.23;15.53;;;;;;;6.16;51.79;100783.81;5079316;28;20455;-71
2022/03/03 07:10:10;;;;;;;24.00;16.77;;;;;;;7.37;48.55;100796.13;5080210;28;20420;-71
2022/03/03 07:12:37;;;;;;;24.87;17.30;;;;;;;8.65;44.51;100798.47;5079392;28;20444;-71
2022/03/03 07:15:05;;;;;;;21.17;14.87;;;;;;;9.09;43.62;100788.06;5080386;28;20452;-71
2022/03/03 07:17:42;;;;;;;21.27;15.67;;;;;;;10.48;40.12;100787.78;5080321;28;20439;-71
2022/03/03 07:20:12;;;;;;;19.37;14.40;;;;;;;10.97;38.33;100783.69;5079824;28;20447;-71
2022/03/03 07:22:49;;;;;;;21.03;15.47;;;;;;;11.22;38.45;100778.91;5078293;28;20460;-72
2022/03/03 07:25:19;;;;;;;19.43;14.77;;;;;;;10.81;37.80;100783.28;5080284;28;20521;-70
2022/03/03 07:27:46;;;;;;;20.50;16.20;;;;;;;9.28;40.18;100782.16;5078602;28;20472;-72
2022/03/03 07:30:15;;;;;;;19.40;15.30;;;;;;;7.31;44.96;100778.78;5081313;28;20428;-72
2022/03/03 07:32:47;;;;;;;18.03;14.60;;;;;;;8.25;45.06;100777.41;5082745;28;21003;-71
2022/03/03 07:35:15;;;;;;;20.20;15.63;;;;;;;10.57;41.37;100768.28;5080925;28;20460;-71
2022/03/03 07:37:49;;;;;;;19.30;15.00;;;;;;;12.75;36.76;100767.09;5083425;28;20574;-71
2022/03/03 07:40:17;;;;;;;1999.90;999.90;;;;;;;14.56;33.61;100771.31;5083768;28;20478;-72
2022/03/03 07:42:45;;;;;;;126.43;69.13;;;;;;;15.72;30.85;100763.91;5083004;28;20432;-72
2022/03/03 07:45:12;;;;;;;21.20;15.73;;;;;;;16.88;29.16;100771.31;5082487;28;20444;-72
2022/03/03 07:47:39;;;;;;;18.57;15.70;;;;;;;17.63;27.97;100770.16;5083260;28;20486;-72
2022/03/03 07:50:08;;;;;;;194.43;43.47;;;;;;;17.34;27.09;100780.72;5082811;28;20458;-72
2022/03/03 07:52:35;;;;;;;446.67;79.43;;;;;;;17.13;27.09;100771.28;5082883;28;20447;-72
2022/03/03 07:55:02;;;;;;;19.43;16.60;;;;;;;17.63;26.88;100772.03;5083638;28;20487;-73
2022/03/03 07:57:35;;;;;;;21.13;17.70;;;;;;;17.34;26.35;100769.91;5081721;28;20459;-72
2022/03/03 08:00:06;;;;;;;140.40;21.60;;;;;;;17.13;27.02;100768.56;5082495;28;20526;-72
2022/03/03 08:02:34;;;;;;;317.33;29.37;;;;;;;17.50;26.50;100775.28;5082291;28;20432;-73
2022/03/03 08:05:02;;;;;;;19.13;17.13;;;;;;;17.53;25.66;100774.06;5082410;28;20452;-72
2022/03/03 08:07:29;;;;;;;21.93;17.00;;;;;;;16.54;27.17;100776.81;5082866;28;20471;-72
2022/03/03 08:09:59;;;;;;;22.27;18.60;;;;;;;15.87;28.14;100783.06;5083087;28;20526;-71
2022/03/03 08:12:26;;;;;;;20.87;18.03;;;;;;;15.21;28.64;100784.50;5082116;28;20431;-72
2022/03/03 08:14:54;;;;;;;24.20;18.90;;;;;;;15.21;29.47;100774.56;5083085;28;21008;-72
2022/03/03 08:17:23;;;;;;;20.73;17.67;;;;;;;15.94;28.05;100770.59;5083574;28;20439;-72
2022/03/03 08:19:51;;;;;;;22.17;18.03;;;;;;;16.90;26.65;100773.84;5081582;28;20439;-72
2022/03/03 08:22:19;;;;;;;23.00;18.13;;;;;;;16.06;27.02;100781.94;5082093;28;20478;-72
2022/03/03 08:24:46;;;;;;;22.87;18.90;;;;;;;14.97;28.23;100794.09;5082643;28;20444;-71
2022/03/03 08:27:13;;;;;;;24.33;19.67;;;;;;;15.37;28.08;100786.47;5082298;28;20428;-72
2022/03/03 08:29:41;;;;;;;22.17;19.00;;;;;;;16.22;26.64;100791.09;5081597;28;20456;-71
2022/03/03 08:32:12;;;;;;;20.47;18.37;;;;;;;16.18;26.80;100801.38;5082443;28;20811;-72
2022/03/03 08:34:43;;;;;;;20.53;18.37;;;;;;;14.95;28.37;100798.78;5079652;28;21284;-73
2022/03/03 08:37:15;;;;;;;23.53;19.07;;;;;;;15.88;27.27;100789.28;5081954;28;20496;-71
2022/03/03 08:39:42;;;;;;;21.03;18.00;;;;;;;16.09;26.86;100791.53;5082758;28;20499;-71
2022/03/03 08:42:10;;;;;;;21.13;18.50;;;;;;;16.09;26.42;100784.31;5081368;28;20507;-71
2022/03/03 08:44:38;;;;;;;21.93;17.40;;;;;;;16.02;26.78;100794.03;5082147;28;20456;-71
2022/03/03 08:47:06;;;;;;;20.60;16.80;;;;;;;15.66;27.50;100791.50;5082494;28;21356;-72
2022/03/03 08:49:39;;;;;;;26.07;19.17;;;;;;;16.66;26.28;100790.84;5080810;28;20448;-71
2022/03/03 08:52:07;;;;;;;21.47;18.50;;;;;;;17.64;25.34;100801.59;5081326;28;20521;-72
2022/03/03 08:54:34;;;;;;;24.73;16.63;;;;;;;13.46;29.15;100797.25;5081546;28;20519;-72
2022/03/03 08:57:01;;;;;;;20.43;17.40;;;;;;;12.67;31.99;100785.72;5081322;28;20435;-73
2022/03/03 08:59:28;;;;;;;18.50;16.50;;;;;;;14.93;28.64;100784.63;5081231;28;20447;-72
2022/03/03 09:01:56;;;;;;;17.50;15.70;;;;;;;14.68;28.22;100778.19;5081230;28;20431;-72
2022/03/03 09:04:23;;;;;;;23.20;17.67;;;;;;;14.20;28.77;100771.28;5080109;28;20645;-72
2022/03/03 09:06:51;;;;;;;23.07;17.23;;;;;;;11.52;33.09;100774.56;5081043;28;20521;-72
2022/03/03 09:09:18;;;;;;;21.20;17.37;;;;;;;14.28;29.11;100774.06;5080991;28;20432;-71
2022/03/03 09:11:45;;;;;;;17.80;15.90;;;;;;;15.78;26.62;100771.38;5080671;28;20537;-72
2022/03/03 09:14:12;;;;;;;20.23;16.03;;;;;;;16.18;26.48;100767.13;5081167;28;20629;-72
2022/03/03 09:16:39;;;;;;;17.57;15.90;;;;;;;15.52;26.29;100771.41;5080679;28;20512;-71
2022/03/03 09:19:07;;;;;;;20.20;15.33;;;;;;;16.22;25.94;100778.44;5080001;28;20432;-72
2022/03/03 09:21:33;;;;;;;18.13;16.23;;;;;;;15.44;27.00;100774.88;5080969;28;20460;-71
2022/03/03 09:24:01;;;;;;;18.63;16.60;;;;;;;15.30;28.04;100769.25;5080811;28;20875;-71
2022/03/03 09:26:28;;;;;;;18.00;15.90;;;;;;;16.37;26.18;100776.81;5080327;28;20485;-72
2022/03/03 09:28:55;;;;;;;18.70;15.07;;;;;;;17.04;25.33;100775.84;5081084;28;20994;-72
2022/03/03 09:31:22;;;;;;;19.23;16.20;;;;;;;16.63;25.83;100775.84;5081105;28;20450;-71
2022/03/03 09:33:50;;;;;;;18.50;16.40;;;;;;;17.11;25.43;100763.34;5079848;28;20472;-73
2022/03/03 09:36:18;;;;;;;17.90;16.03;;;;;;;16.39;24.22;100760.44;5078489;28;20470;-73
2022/03/03 09:38:44;;;;;;;15.77;14.10;;;;;;;16.53;25.34;100764.34;5080887;28;20436;-73
2022/03/03 09:41:14;;;;;;;16.13;14.20;;;;;;;15.39;26.56;100755.66;5081063;28;20440;-73
2022/03/03 09:43:41;;;;;;;18.00;15.97;;;;;;;15.31;26.84;100752.06;5079876;28;20433;-72
2022/03/03 09:46:08;;;;;;;17.20;15.00;;;;;;;17.06;24.68;100746.78;5080534;28;20526;-72
2022/03/03 09:48:35;;;;;;;17.87;15.60;;;;;;;17.83;24.72;100745.41;5080516;28;20452;-71
2022/03/03 09:51:01;;;;;;;17.57;15.63;;;;;;;17.22;24.12;100748.66;5079925;28;20424;-73
2022/03/03 09:53:28;;;;;;;18.80;15.60;;;;;;;16.29;25.12;100746.25;5080043;28;20821;-72
2022/03/03 09:55:55;;;;;;;17.13;15.33;;;;;;;17.11;24.95;100747.13;5080065;28;20455;-72
2022/03/03 09:58:23;;;;;;;18.67;15.33;;;;;;;17.91;23.61;100749.97;5079161;28;21219;-73
2022/03/03 10:00:50;;;;;;;18.17;15.40;;;;;;;17.83;23.63;100743.56;5079462;28;20444;-71
2022/03/03 10:03:18;;;;;;;17.47;15.23;;;;;;;17.57;23.89;100749.22;5076048;28;20475;-72
2022/03/03 10:05:47;;;;;;;17.80;15.90;;;;;;;16.74;24.74;100742.25;5070344;28;20455;-72
2022/03/03 10:08:16;;;;;;;17.50;14.33;;;;;;;15.56;25.75;100745.81;5078957;28;20509;-71
2022/03/03 10:10:44;;;;;;;16.67;15.00;;;;;;;15.18;26.67;100747.94;5079501;28;20463;-71
2022/03/03 10:13:14;;;;;;;15.83;14.03;;;;;;;15.59;26.14;100747.34;5078421;28;20494;-72
2022/03/03 10:15:43;;;;;;;17.93;14.97;;;;;;;14.96;26.31;100759.22;5078818;28;20483;-72
2022/03/03 10:18:12;;;;;;;18.90;15.13;;;;;;;13.25;29.18;100760.66;5078919;28;20488;-72
2022/03/03 10:20:50;;;;;;;16.50;14.80;;;;;;;13.35;28.26;100756.13;5078417;28;20918;-72
2022/03/03 10:23:18;;;;;;;14.83;13.33;;;;;;;12.61;28.35;100764.84;5078547;28;20460;-72
2022/03/03 10:25:46;;;;;;;17.00;15.20;;;;;;;12.52;29.32;100761.16;5079152;28;20946;-71
2022/03/03 10:28:16;;;;;;;18.53;14.57;;;;;;;12.24;30.46;100765.53;5078383;28;20915;-72
2022/03/03 10:31:01;;;;;;;17.50;15.33;;;;;;;13.07;29.78;100760.56;5079385;28;20443;-71
2022/03/03 10:33:30;;;;;;;17.80;15.73;;;;;;;13.30;29.55;100761.06;5078982;28;20439;-71
2022/03/03 10:36:08;;;;;;;17.77;15.87;;;;;;;13.59;28.49;100757.44;5076219;28;20492;-72
2022/03/03 10:38:45;;;;;;;17.23;15.37;;;;;;;13.05;29.31;100765.22;5078592;28;20460;-71
2022/03/03 10:41:30;;;;;;;16.63;14.83;;;;;;;13.84;27.95;100747.88;5079027;28;20424;-71
2022/03/03 10:43:57;;;;;;;16.70;14.90;;;;;;;13.83;28.06;100758.75;5077593;28;20463;-72
2022/03/03 10:46:25;;;;;;;16.50;14.37;;;;;;;13.52;27.57;100759.03;5078850;28;20452;-72
2022/03/03 10:48:52;;;;;;;18.50;14.40;;;;;;;14.10;27.42;100757.91;5078217;28;20447;-72
2022/03/03 10:51:21;;;;;;;19.13;15.30;;;;;;;15.17;26.75;100762.44;5077241;28;20427;-73
2022/03/03 10:53:47;;;;;;;16.60;14.80;;;;;;;15.91;25.10;100759.31;5078723;28;20519;-73
2022/03/03 10:56:17;;;;;;;16.57;14.53;;;;;;;15.01;26.04;100759.59;5078818;28;20452;-73
2022/03/03 10:58:51;;;;;;;16.30;14.60;;;;;;;14.35;26.48;100758.16;5077478;28;20482;-73
2022/03/03 11:01:21;;;;;;;16.60;13.43;;;;;;;13.01;27.74;100769.19;5078673;28;20428;-72
2022/03/03 11:03:53;;;;;;;16.53;14.73;;;;;;;14.02;27.24;100757.81;5078534;28;20456;-72
2022/03/03 11:06:21;;;;;;;17.50;15.00;;;;;;;14.07;26.53;100756.34;5080114;28;20483;-72
2022/03/03 11:08:49;;;;;;;18.23;16.30;;;;;;;13.58;27.52;100753.09;5082228;28;20435;-72
2022/03/03 11:11:16;;;;;;;17.30;14.80;;;;;;;12.52;29.33;100755.81;5081178;28;20477;-73
2022/03/03 11:13:45;;;;;;;15.40;13.73;;;;;;;13.36;28.11;100755.13;5081255;28;20462;-73